CheckWX is a tool to help pilots better visualize weather data.  It is not intended as a substitute for an official pre-flight weather briefing.

22:16:22 UTC

6L4 METAR
Logan County Airport
Logan, West Virginia, USA
Current

21 mins ago

K6L4 252155Z AUTO 00000KT 10SM VCTS OVC025 12/08 A2993 RMK AO2
Observed
Mar-25 @ 21:55 UTC
Visibility
10 SM
Flight Rules
MVFR
Conditions
Area Thunderstorm
Cloud Levels
  • Overcast at 2,500' AGL
Temperature
12°C / 54°F
Dewpoint
C / 46°F
Humidity
77%
Altimeter
29.93" Hg
Pressure
1013.52 hPa
Previous

41 mins ago

K6L4 252135Z AUTO 00000KT 10SM BKN027 OVC032 12/08 A2993 RMK AO2
Observed
Mar-25 @ 21:35 UTC
Visibility
10 SM
Flight Rules
MVFR
Cloud Levels
  • Broken at 2,700' AGL
  • Overcast at 3,200' AGL
Temperature
12°C / 54°F
Dewpoint
C / 46°F
Humidity
77%
Altimeter
29.93" Hg
Pressure
1013.52 hPa
Previous

1 hour ago

K6L4 252115Z AUTO 00000KT 10SM FEW021 BKN032 OVC050 12/08 A2993 RMK AO2
Observed
Mar-25 @ 21:15 UTC
Visibility
10 SM
Flight Rules
VFR
Cloud Levels
  • Few at 2,100' AGL
  • Broken at 3,200' AGL
  • Overcast at 5,000' AGL
Temperature
12°C / 54°F
Dewpoint
C / 46°F
Humidity
77%
Altimeter
29.93" Hg
Pressure
1013.52 hPa